createdAt,value
2022-09-26T00:00:49.561Z,71.14
2022-09-26T00:03:17.587Z,70.93
2022-09-26T00:05:46.825Z,70.96
2022-09-26T00:08:14.654Z,71.11
2022-09-26T00:10:42.486Z,70.82
2022-09-26T00:13:10.352Z,70.86
2022-09-26T00:15:38.213Z,70.99
2022-09-26T00:18:06.102Z,70.72
2022-09-26T00:20:34.004Z,70.69
2022-09-26T00:23:03.163Z,69.99
2022-09-26T00:25:31.060Z,70.09
2022-09-26T00:27:58.928Z,69.51
2022-09-26T00:30:26.839Z,69.25
2022-09-26T00:32:54.694Z,68.73
2022-09-26T00:35:22.531Z,68.49
2022-09-26T00:37:50.373Z,68.46
2022-09-26T00:40:19.859Z,68.39
2022-09-26T00:42:47.832Z,68.10
2022-09-26T00:45:15.790Z,68.15
2022-09-26T00:47:46.253Z,67.96
2022-09-26T00:50:19.717Z,67.98
2022-09-26T00:52:51.872Z,68.06
2022-09-26T00:55:23.681Z,68.22
2022-09-26T00:57:57.636Z,68.33
2022-09-26T01:00:25.547Z,68.94
2022-09-26T01:02:54.376Z,68.41
2022-09-26T01:05:24.485Z,67.96
2022-09-26T01:07:53.964Z,67.87
2022-09-26T01:10:24.433Z,68.08
2022-09-26T01:12:52.616Z,68.18
2022-09-26T01:15:20.806Z,68.87
2022-09-26T01:17:49.752Z,69.00
2022-09-26T01:20:38.284Z,68.65
2022-09-26T01:23:41.714Z,68.70
2022-09-26T01:26:29.229Z,68.38
2022-09-26T01:29:31.879Z,68.36
2022-09-26T01:32:22.970Z,68.55
2022-09-26T01:34:56.758Z,68.44
2022-09-26T01:37:32.017Z,68.14
2022-09-26T01:40:09.411Z,68.49
2022-09-26T01:42:40.428Z,67.70
2022-09-26T01:45:12.610Z,67.53
2022-09-26T01:47:43.745Z,67.42
2022-09-26T01:50:19.022Z,67.70
2022-09-26T01:52:51.843Z,69.49
2022-09-26T01:55:23.865Z,69.82
2022-09-26T01:57:54.938Z,69.87
2022-09-26T02:00:23.431Z,69.38
2022-09-26T02:02:52.782Z,68.04
2022-09-26T02:05:25.305Z,67.13
2022-09-26T02:07:56.361Z,66.80
2022-09-26T02:10:27.524Z,66.69
2022-09-26T02:12:59.335Z,67.04
2022-09-26T02:15:30.614Z,67.21
2022-09-26T02:18:06.500Z,66.92
2022-09-26T02:20:36.619Z,67.31
2022-09-26T02:23:05.169Z,67.20
2022-09-26T02:25:34.522Z,67.78
2022-09-26T02:28:02.829Z,67.96
2022-09-26T02:30:31.032Z,68.01
2022-09-26T02:33:01.028Z,68.20
2022-09-26T02:35:46.321Z,69.02
2022-09-26T02:38:14.227Z,68.59
2022-09-26T02:40:54.036Z,68.89
2022-09-26T02:43:32.366Z,69.05
2022-09-26T02:46:09.228Z,69.27
2022-09-26T02:48:48.385Z,69.05
2022-09-26T02:51:31.789Z,68.94
2022-09-26T02:54:17.262Z,68.95
2022-09-26T02:56:59.161Z,69.04
2022-09-26T02:59:35.123Z,68.98
2022-09-26T03:02:06.973Z,69.19
2022-09-26T03:04:43.030Z,69.29
2022-09-26T03:07:14.758Z,68.96
2022-09-26T03:09:43.676Z,69.07
2022-09-26T03:12:12.043Z,68.55
2022-09-26T03:14:41.707Z,68.44
2022-09-26T03:17:10.139Z,69.25
2022-09-26T03:19:44.967Z,69.76
2022-09-26T03:22:13.049Z,70.28
2022-09-26T03:24:42.152Z,70.34
2022-09-26T03:27:11.778Z,69.88
2022-09-26T03:29:40.044Z,69.95
2022-09-26T03:32:12.857Z,70.37
2022-09-26T03:34:42.570Z,70.02
2022-09-26T03:37:11.325Z,71.15
2022-09-26T03:39:39.363Z,70.67
2022-09-26T03:42:14.268Z,71.37
2022-09-26T03:44:44.070Z,71.87
2022-09-26T03:47:15.791Z,71.68
2022-09-26T03:49:47.272Z,71.48
2022-09-26T03:52:15.222Z,71.26
2022-09-26T03:54:44.868Z,71.84
2022-09-26T03:57:13.620Z,71.55
2022-09-26T03:59:48.038Z,71.92
2022-09-26T04:02:18.272Z,72.04
2022-09-26T04:04:51.162Z,73.03
2022-09-26T04:07:19.590Z,72.75
2022-09-26T04:09:47.680Z,72.31
2022-09-26T04:12:15.684Z,71.49
2022-09-26T04:14:45.285Z,71.62
2022-09-26T04:17:13.545Z,71.95
2022-09-26T04:19:44.503Z,71.98
2022-09-26T04:22:13.781Z,72.27
2022-09-26T04:24:41.991Z,71.82
2022-09-26T04:27:09.801Z,72.64
2022-09-26T04:29:38.560Z,72.94
2022-09-26T04:32:12.490Z,72.91
2022-09-26T04:34:52.656Z,72.99
2022-09-26T04:37:22.651Z,73.15
2022-09-26T04:39:50.631Z,73.34
2022-09-26T04:42:18.515Z,72.83
2022-09-26T04:44:48.173Z,73.23
2022-09-26T04:47:17.701Z,73.83
2022-09-26T04:50:06.402Z,73.50
2022-09-26T04:52:35.633Z,73.16
2022-09-26T04:55:03.953Z,72.79
2022-09-26T04:57:32.053Z,73.27
2022-09-26T05:00:00.098Z,73.51
2022-09-26T05:02:29.981Z,73.25
2022-09-26T05:04:59.779Z,73.22
2022-09-26T05:07:31.438Z,73.61
2022-09-26T05:10:00.660Z,74.13
2022-09-26T05:12:28.759Z,74.15
2022-09-26T05:14:56.821Z,73.87
2022-09-26T05:17:24.857Z,74.42
2022-09-26T05:19:56.978Z,73.60
2022-09-26T05:22:34.047Z,73.14
2022-09-26T05:25:22.161Z,73.13
2022-09-26T05:27:50.077Z,72.67
2022-09-26T05:30:18.239Z,72.84
2022-09-26T05:32:48.359Z,72.36
2022-09-26T05:35:17.654Z,72.56
2022-09-26T05:37:46.229Z,72.64
2022-09-26T05:40:33.401Z,72.65
2022-09-26T05:43:02.495Z,72.99
2022-09-26T05:45:31.299Z,72.50
2022-09-26T05:48:00.536Z,72.20
2022-09-26T05:50:28.877Z,71.46
2022-09-26T05:52:58.658Z,71.42
2022-09-26T05:55:29.027Z,71.35
2022-09-26T05:58:15.755Z,70.91
2022-09-26T06:01:08.069Z,70.98
2022-09-26T06:03:36.825Z,71.39
2022-09-26T06:06:11.531Z,70.34
2022-09-26T06:08:40.479Z,70.37
2022-09-26T06:11:31.617Z,70.18
2022-09-26T06:14:01.120Z,70.51
2022-09-26T06:16:29.753Z,69.92
2022-09-26T06:18:58.632Z,69.43
2022-09-26T06:21:27.413Z,69.33
2022-09-26T06:24:00.578Z,68.52
2022-09-26T06:26:31.844Z,68.74
2022-09-26T06:29:00.728Z,68.67
2022-09-26T06:31:31.640Z,68.12
2022-09-26T06:34:13.103Z,67.53
2022-09-26T06:37:00.291Z,66.62
2022-09-26T06:39:35.541Z,66.52
2022-09-26T06:42:07.401Z,65.81
2022-09-26T06:44:59.488Z,65.10
2022-09-26T06:47:48.229Z,65.18
2022-09-26T06:50:53.185Z,64.31
2022-09-26T06:53:21.720Z,63.94
2022-09-26T06:55:50.331Z,63.81
2022-09-26T06:58:20.335Z,62.82
2022-09-26T07:00:55.063Z,62.53
2022-09-26T07:04:01.394Z,62.79
2022-09-26T07:06:49.893Z,62.00
2022-09-26T07:09:18.505Z,61.70
2022-09-26T07:14:42.963Z,61.31
2022-09-26T07:17:28.735Z,61.11
2022-09-26T07:20:37.428Z,61.48
2022-09-26T07:23:16.919Z,61.24
2022-09-26T07:25:46.394Z,60.94
2022-09-26T07:28:15.171Z,60.89
2022-09-26T07:30:51.893Z,61.00
2022-09-26T07:33:45.672Z,61.15
2022-09-26T07:36:13.631Z,61.02
2022-09-26T07:38:43.810Z,60.71
2022-09-26T07:41:12.260Z,60.99
2022-09-26T07:46:48.999Z,60.91
2022-09-26T07:49:34.529Z,61.07
2022-09-26T07:52:22.466Z,60.47
2022-09-26T07:55:29.384Z,60.33
2022-09-26T07:58:07.845Z,60.88
2022-09-26T08:00:55.892Z,60.84
2022-09-26T08:03:44.863Z,60.76
2022-09-26T08:06:23.937Z,59.81
2022-09-26T08:08:54.271Z,59.90
2022-09-26T08:11:41.820Z,59.65
2022-09-26T08:14:20.801Z,60.00
2022-09-26T08:17:21.657Z,59.35
2022-09-26T08:19:50.864Z,60.02
2022-09-26T08:22:18.738Z,59.21
2022-09-26T08:24:50.885Z,59.18
2022-09-26T08:27:33.541Z,59.41
2022-09-26T08:30:02.685Z,59.86
2022-09-26T08:32:31.662Z,59.13
2022-09-26T08:35:00.949Z,59.48
2022-09-26T08:38:04.828Z,60.13
2022-09-26T08:40:51.643Z,60.76
2022-09-26T08:43:55.971Z,61.96
2022-09-26T08:46:59.830Z,62.23
2022-09-26T08:49:49.127Z,63.35
2022-09-26T08:52:29.570Z,63.95
2022-09-26T08:54:59.675Z,63.25
2022-09-26T08:57:34.075Z,63.08
2022-09-26T09:00:10.066Z,63.56
2022-09-26T09:02:42.417Z,64.73
2022-09-26T09:05:19.180Z,64.87
2022-09-26T09:07:52.515Z,66.03
2022-09-26T09:10:28.859Z,66.72
2022-09-26T09:13:10.782Z,67.88
2022-09-26T09:16:04.885Z,68.49
2022-09-26T09:18:55.436Z,70.71
2022-09-26T09:21:41.765Z,71.89
2022-09-26T09:24:52.464Z,72.34
2022-09-26T09:30:19.852Z,72.52
2022-09-26T09:33:13.180Z,72.50
2022-09-26T09:36:08.082Z,72.50
2022-09-26T09:38:45.788Z,72.09
2022-09-26T09:41:25.486Z,71.86
2022-09-26T09:43:55.565Z,71.98
2022-09-26T09:46:28.714Z,72.10
2022-09-26T09:48:58.304Z,72.31
2022-09-26T09:51:39.592Z,71.85
2022-09-26T09:54:25.903Z,70.92
2022-09-26T09:57:12.623Z,70.53
2022-09-26T09:59:52.680Z,70.79
2022-09-26T10:02:29.966Z,70.51
2022-09-26T10:05:06.201Z,70.87
2022-09-26T10:07:34.086Z,71.02
2022-09-26T10:10:29.574Z,71.96
2022-09-26T10:13:17.898Z,71.70
2022-09-26T10:16:07.047Z,70.88
2022-09-26T10:19:03.321Z,71.84
2022-09-26T10:21:39.322Z,72.43
2022-09-26T10:24:08.681Z,72.47
2022-09-26T10:26:47.402Z,72.14
2022-09-26T10:29:35.153Z,73.57
2022-09-26T10:32:03.740Z,73.47
2022-09-26T10:34:35.292Z,73.71
2022-09-26T10:37:21.573Z,73.92
2022-09-26T10:40:08.450Z,73.19
2022-09-26T10:42:38.317Z,73.04
2022-09-26T10:45:15.814Z,72.19
2022-09-26T10:48:02.902Z,71.93
2022-09-26T10:50:51.449Z,71.77
2022-09-26T10:53:40.134Z,70.55
2022-09-26T10:56:11.985Z,69.65
2022-09-26T10:58:42.114Z,70.13
2022-09-26T11:01:21.367Z,69.25
2022-09-26T11:03:51.179Z,68.64
2022-09-26T11:06:27.926Z,67.24
2022-09-26T11:09:03.519Z,67.48
2022-09-26T11:11:39.329Z,68.20
2022-09-26T11:14:09.439Z,67.96
2022-09-26T11:16:51.334Z,67.62
2022-09-26T11:19:28.873Z,67.14
2022-09-26T11:22:03.189Z,67.44
2022-09-26T11:27:31.569Z,67.36
2022-09-26T11:33:11.226Z,67.15
2022-09-26T11:36:10.969Z,66.61
2022-09-26T11:38:46.371Z,66.77
2022-09-26T11:41:38.279Z,67.10
2022-09-26T11:44:33.807Z,66.25
2022-09-26T11:47:44.799Z,66.17
2022-09-26T11:50:30.173Z,64.81
2022-09-26T11:53:44.257Z,64.36
2022-09-26T11:56:26.559Z,62.78
2022-09-26T11:59:01.443Z,62.27
2022-09-26T12:01:38.198Z,62.60
2022-09-26T12:04:31.013Z,61.23
2022-09-26T12:07:07.171Z,61.24
2022-09-26T12:09:48.946Z,60.57
2022-09-26T12:12:20.712Z,59.94
2022-09-26T12:15:02.208Z,60.53
2022-09-26T12:17:41.031Z,60.21
2022-09-26T12:20:18.251Z,58.26
2022-09-26T12:22:52.093Z,58.24
2022-09-26T12:25:30.102Z,57.77
2022-09-26T12:28:09.257Z,59.01
2022-09-26T12:30:41.464Z,59.64
2022-09-26T12:33:30.471Z,60.19
2022-09-26T12:36:02.264Z,59.41
2022-09-26T12:38:54.355Z,58.67
2022-09-26T12:41:51.713Z,59.37
2022-09-26T12:44:31.290Z,58.28
2022-09-26T12:47:10.689Z,58.59
2022-09-26T12:49:55.087Z,58.31
2022-09-26T12:52:34.790Z,59.21
2022-09-26T12:55:15.986Z,59.06
2022-09-26T12:57:57.216Z,58.31
2022-09-26T13:00:27.000Z,57.95
2022-09-26T13:03:28.208Z,58.27
2022-09-26T13:06:34.953Z,57.59
2022-09-26T13:09:13.162Z,58.39
2022-09-26T13:11:45.831Z,58.76
2022-09-26T13:14:27.912Z,59.84
2022-09-26T13:17:09.781Z,62.43
2022-09-26T13:19:40.753Z,64.03
2022-09-26T13:22:22.054Z,65.63
2022-09-26T13:24:53.543Z,65.53
2022-09-26T13:27:26.765Z,66.54
2022-09-26T13:30:01.888Z,66.96
2022-09-26T13:32:36.868Z,66.37
2022-09-26T13:35:09.386Z,65.73
2022-09-26T13:37:47.735Z,65.98
2022-09-26T13:40:28.926Z,66.27
2022-09-26T13:43:07.809Z,66.29
2022-09-26T13:45:49.016Z,67.02
2022-09-26T13:48:20.825Z,67.40
2022-09-26T13:50:55.834Z,68.25
2022-09-26T13:53:28.794Z,74.81
2022-09-26T13:56:47.506Z,69.72
2022-09-26T13:59:34.553Z,69.76
2022-09-26T14:02:24.724Z,68.93
2022-09-26T14:04:53.786Z,68.88
2022-09-26T14:07:42.588Z,67.94
2022-09-26T14:10:19.517Z,67.85
2022-09-26T14:12:56.958Z,68.03
2022-09-26T14:15:28.321Z,68.03
2022-09-26T14:18:29.557Z,67.18
2022-09-26T14:21:08.850Z,67.31
2022-09-26T14:23:41.790Z,67.28
2022-09-26T14:26:11.818Z,66.41
2022-09-26T14:28:40.787Z,67.11
2022-09-26T14:31:32.778Z,67.05
2022-09-26T14:34:17.038Z,67.07
2022-09-26T14:36:45.762Z,67.33
2022-09-26T14:39:26.128Z,67.10
2022-09-26T14:41:54.751Z,66.52
2022-09-26T14:44:23.650Z,65.80
2022-09-26T14:46:54.454Z,67.06
2022-09-26T14:49:24.666Z,66.64
2022-09-26T14:51:58.774Z,66.88
2022-09-26T14:54:31.923Z,66.30
2022-09-26T14:57:01.635Z,66.71
2022-09-26T14:59:43.683Z,67.29
2022-09-26T15:02:21.308Z,68.36
2022-09-26T15:04:56.121Z,68.24
2022-09-26T15:07:25.806Z,68.99
2022-09-26T15:09:58.019Z,69.72
2022-09-26T15:12:29.910Z,69.76
2022-09-26T15:15:11.571Z,70.96
2022-09-26T15:17:45.659Z,70.16
2022-09-26T15:20:16.896Z,69.53
2022-09-26T15:22:45.291Z,70.12
2022-09-26T15:25:21.622Z,70.80
2022-09-26T15:27:53.843Z,71.60
2022-09-26T15:30:24.302Z,71.61
2022-09-26T15:32:57.288Z,71.90
2022-09-26T15:35:26.702Z,71.63
2022-09-26T15:37:58.541Z,71.85
2022-09-26T15:40:28.142Z,71.98
2022-09-26T15:43:07.962Z,71.60
2022-09-26T15:45:58.208Z,71.96
2022-09-26T15:48:30.230Z,72.74
2022-09-26T15:51:02.219Z,72.90
2022-09-26T15:53:34.747Z,72.37
2022-09-26T15:56:05.983Z,73.00
2022-09-26T15:58:37.765Z,73.97
2022-09-26T16:01:06.506Z,74.17
2022-09-26T16:03:45.130Z,74.25
2022-09-26T16:06:23.056Z,73.83
2022-09-26T16:08:54.094Z,73.12
2022-09-26T16:11:22.491Z,72.81
2022-09-26T16:13:51.956Z,72.48
2022-09-26T16:16:24.369Z,72.20
2022-09-26T16:18:57.205Z,71.59
2022-09-26T16:21:26.787Z,72.01
2022-09-26T16:23:57.074Z,71.60
2022-09-26T16:26:31.156Z,71.14
2022-09-26T16:29:00.620Z,71.16
2022-09-26T16:31:31.860Z,71.47
2022-09-26T16:34:02.454Z,70.67
2022-09-26T16:36:32.591Z,70.95
2022-09-26T16:39:02.316Z,71.37
2022-09-26T16:42:01.268Z,71.26
2022-09-26T16:44:33.535Z,71.86
2022-09-26T16:47:05.332Z,71.37
2022-09-26T16:49:42.202Z,72.23
2022-09-26T16:52:21.973Z,71.89
2022-09-26T16:54:49.921Z,71.97
2022-09-26T16:57:22.701Z,72.19
2022-09-26T16:59:51.068Z,72.63
2022-09-26T17:02:18.310Z,72.32
2022-09-26T17:04:48.505Z,72.25
2022-09-26T17:07:16.757Z,72.57
2022-09-26T17:09:44.615Z,72.95
2022-09-26T17:12:18.080Z,73.52
2022-09-26T17:14:49.262Z,72.99
2022-09-26T17:17:21.909Z,73.17
2022-09-26T17:19:58.208Z,73.20
2022-09-26T17:22:27.204Z,73.57
2022-09-26T17:24:55.559Z,74.43
2022-09-26T17:27:26.943Z,75.02
2022-09-26T17:30:02.321Z,75.90
2022-09-26T17:32:32.461Z,76.74
2022-09-26T17:35:03.805Z,77.53
2022-09-26T17:37:32.038Z,77.71
2022-09-26T17:39:59.885Z,77.67
2022-09-26T17:42:30.282Z,78.03
2022-09-26T17:44:58.129Z,78.47
2022-09-26T17:47:26.378Z,78.47
2022-09-26T17:49:54.794Z,78.76
2022-09-26T17:52:25.873Z,78.86
2022-09-26T17:54:57.340Z,78.75
2022-09-26T17:57:29.957Z,79.47
2022-09-26T17:59:57.901Z,79.54
2022-09-26T18:02:30.551Z,80.00
2022-09-26T18:05:00.946Z,80.34
2022-09-26T18:07:34.130Z,80.75
2022-09-26T18:10:03.524Z,81.03
2022-09-26T18:12:31.336Z,81.52
2022-09-26T18:14:59.967Z,81.74
2022-09-26T18:17:27.939Z,81.61
2022-09-26T18:19:55.778Z,81.52
2022-09-26T18:22:27.179Z,82.23
2022-09-26T18:25:01.310Z,82.59
2022-09-26T18:27:29.188Z,82.77
2022-09-26T18:29:56.989Z,82.67
2022-09-26T18:32:27.260Z,83.21
2022-09-26T18:34:55.101Z,83.09
2022-09-26T18:37:22.916Z,82.81
2022-09-26T18:39:54.661Z,82.92
2022-09-26T18:42:25.012Z,82.85
2022-09-26T18:45:03.503Z,82.98
2022-09-26T18:47:34.545Z,83.43
2022-09-26T18:50:02.667Z,83.75
2022-09-26T18:52:31.328Z,84.13
2022-09-26T18:55:17.039Z,83.60
2022-09-26T18:58:03.883Z,83.53
2022-09-26T19:00:31.722Z,83.77
2022-09-26T19:02:59.994Z,83.57
2022-09-26T19:05:27.928Z,83.67
2022-09-26T19:07:57.188Z,83.82
2022-09-26T19:10:27.068Z,83.71
2022-09-26T19:12:56.500Z,83.88
2022-09-26T19:15:24.676Z,84.17
2022-09-26T19:17:52.514Z,84.61
2022-09-26T19:20:20.313Z,84.87
2022-09-26T19:22:48.227Z,85.26
2022-09-26T19:25:16.067Z,85.50
2022-09-26T19:27:47.132Z,85.59
2022-09-26T19:30:18.399Z,85.88
2022-09-26T19:32:49.228Z,85.81
2022-09-26T19:35:23.055Z,85.49
2022-09-26T19:37:51.197Z,85.10
2022-09-26T19:40:20.592Z,85.39
2022-09-26T19:42:48.920Z,85.27
2022-09-26T19:45:19.527Z,85.43
2022-09-26T19:47:48.619Z,85.59
2022-09-26T19:50:18.290Z,85.93
2022-09-26T19:52:46.097Z,86.08
2022-09-26T19:55:15.469Z,85.99
2022-09-26T19:57:43.317Z,86.38
2022-09-26T20:00:12.740Z,86.44
2022-09-26T20:02:42.356Z,86.38
2022-09-26T20:05:16.947Z,85.87
2022-09-26T20:07:44.775Z,84.39
2022-09-26T20:10:15.572Z,84.56
2022-09-26T20:12:43.386Z,85.25
2022-09-26T20:15:12.590Z,85.08
2022-09-26T20:17:44.081Z,85.25
2022-09-26T20:20:16.925Z,85.53
2022-09-26T20:22:45.276Z,84.88
2022-09-26T20:25:15.666Z,84.13
2022-09-26T20:27:43.913Z,83.50
2022-09-26T20:30:32.462Z,84.22
2022-09-26T20:33:02.039Z,85.48
2022-09-26T20:35:35.344Z,85.15
2022-09-26T20:38:05.238Z,85.66
2022-09-26T20:40:33.331Z,85.35
2022-09-26T20:43:04.651Z,85.18
2022-09-26T20:45:38.639Z,85.03
2022-09-26T20:48:09.213Z,84.80
2022-09-26T20:50:38.468Z,84.97
2022-09-26T20:53:10.540Z,84.61
2022-09-26T20:55:43.217Z,84.31
2022-09-26T20:58:11.871Z,84.31
2022-09-26T21:00:39.851Z,83.93
2022-09-26T21:03:09.256Z,83.79
2022-09-26T21:05:37.808Z,84.37
2022-09-26T21:08:10.111Z,83.72
2022-09-26T21:10:37.974Z,83.29
2022-09-26T21:13:05.789Z,83.61
2022-09-26T21:15:34.190Z,83.30
2022-09-26T21:18:02.742Z,83.22
2022-09-26T21:20:33.772Z,83.19
2022-09-26T21:23:20.823Z,83.30
2022-09-26T21:25:48.694Z,83.54
2022-09-26T21:28:27.511Z,83.35
2022-09-26T21:30:56.265Z,83.76
2022-09-26T21:33:24.400Z,84.42
2022-09-26T21:35:53.614Z,84.73
2022-09-26T21:38:22.242Z,85.18
2022-09-26T21:40:54.186Z,84.94
2022-09-26T21:43:24.394Z,84.60
2022-09-26T21:45:52.347Z,84.88
2022-09-26T21:48:20.157Z,85.15
2022-09-26T21:50:55.298Z,84.81
2022-09-26T21:53:28.998Z,84.63
2022-09-26T21:56:05.112Z,84.59
2022-09-26T21:58:38.010Z,84.61
2022-09-26T22:01:06.122Z,84.80
2022-09-26T22:03:35.761Z,84.73
2022-09-26T22:06:07.415Z,84.80
2022-09-26T22:08:37.106Z,84.50
2022-09-26T22:11:05.212Z,84.56
2022-09-26T22:13:33.686Z,83.94
2022-09-26T22:16:05.958Z,83.44
2022-09-26T22:18:34.121Z,83.74
2022-09-26T22:21:03.807Z,83.95
2022-09-26T22:23:32.030Z,84.02
2022-09-26T22:26:01.359Z,83.72
2022-09-26T22:28:29.685Z,84.16
2022-09-26T22:31:01.154Z,84.01
2022-09-26T22:33:29.270Z,84.29
2022-09-26T22:35:57.332Z,84.26
2022-09-26T22:38:25.380Z,83.96
2022-09-26T22:40:57.286Z,83.77
2022-09-26T22:43:26.737Z,84.09
2022-09-26T22:45:54.635Z,84.76
2022-09-26T22:48:22.502Z,84.23
2022-09-26T22:50:50.373Z,85.71
2022-09-26T22:53:18.188Z,85.67
2022-09-26T22:55:54.293Z,86.57
2022-09-26T22:58:22.609Z,87.08
2022-09-26T23:00:52.327Z,86.38
2022-09-26T23:03:20.470Z,87.17
2022-09-26T23:05:49.929Z,87.72
2022-09-26T23:08:17.806Z,87.54
2022-09-26T23:10:50.085Z,87.58
2022-09-26T23:13:18.062Z,87.31
2022-09-26T23:15:46.412Z,86.95
2022-09-26T23:18:15.636Z,86.82
2022-09-26T23:20:44.617Z,86.97
2022-09-26T23:23:13.529Z,86.50
2022-09-26T23:25:46.538Z,86.31
2022-09-26T23:28:14.613Z,86.07
2022-09-26T23:30:42.882Z,86.61
2022-09-26T23:33:10.858Z,85.97
2022-09-26T23:35:40.385Z,85.73
2022-09-26T23:38:08.223Z,85.53
2022-09-26T23:40:37.648Z,85.68
2022-09-26T23:43:05.455Z,85.79
2022-09-26T23:45:33.644Z,86.32
2022-09-26T23:48:01.832Z,86.55
2022-09-26T23:50:29.628Z,86.29
2022-09-26T23:53:02.251Z,86.55
2022-09-26T23:55:33.802Z,86.69
2022-09-26T23:58:01.676Z,87.01
